Terminal Aerodrome Forecast
Issued by NWS Quad Cities IA IL

Home | Current Version | Previous Version | Text Only | Print | Product List | Glossary On
Versions: 1 2 3 4 5 6 7 8 9 10 11 12 13 14 15 16 17 18 19 20 21 22 23
995
FTUS43 KDVN 161740
TAFMLI
TAF
KMLI 161740Z 1618/1718 15011KT P6SM VCSH BKN025 BKN060
     FM162200 16011KT P6SM VCTS BKN025CB BKN060
      TEMPO 1623/1702 2SM TSRA BR BKN018CB
     FM170500 17010KT P6SM VCTS BKN025CB OVC060
     FM170800 21008KT 6SM -RA BR OVC020
     FM171300 25011KT 6SM BR OVC018=

USA.gov is the U.S. government's official web portal to all federal, state and local government web resources and services.